ADDS TAF Board (Experimental) INFO

IDs: Format: Expanded Condensed

Updated at: 1703 UTC 23 Nov 2014

KATL - Atlanta/Hartsfield-J, GA, US

Issued at 1639 UTC 23 Nov 2014
Time1652Z23/18Z23/19Z23/20Z23/21Z23/22Z23/23Z24/00Z24/01Z24/02Z24/03Z24/04Z24/05Z24/06Z
TypeOBSPRVL
  [TEMP]  
PRVLPRVLPRVLPRVLPRVLPRVLPRVLPRVLPRVLPRVLPRVLPRVL
VIS0.754
  [2]  
444466666644
CIG44
  [4]  
444499999977
CoverOVCOVC
  [OVC]  
OVCOVCOVCOVCOVCOVCOVCOVCOVCOVCOVCOVC
FltCatLIFRLIFR
  [LIFR]  
LIFRLIFRLIFRLIFRIFRIFRIFRIFRIFRIFRIFRIFR
WXBR-SHRA BR
  [TSRA BR]  
-SHRA BR-SHRA BR-SHRA BR-SHRA BRBR VCSHBR VCSHBR VCSHBR VCSHBR VCSHBR VCSHBRBR
WDir90100
[100]
100100100100150150150150150150190190
WSpd1612
  [12]  
121212121010101010101010
WGst--20
  [20]  
20202020202020202020----
R08/26
XWnd0-2-2-2-2-2-9-9-9-9-9-9-10-10
XGst---3-3-3-3-3-17-17-17-17-17-17----
HWnd161212121212555555-2-2
HGst--2020202020101010101010----
R09/27
XWnd0-2-2-2-2-2-9-9-9-9-9-9-10-10
XGst---3-3-3-3-3-17-17-17-17-17-17----
HWnd161212121212555555-2-2
HGst--2020202020101010101010----
R10/28
XWnd0-2-2-2-2-2-9-9-9-9-9-9-10-10
XGst---3-3-3-3-3-17-17-17-17-17-17----
HWnd161212121212555555-2-2
HGst--2020202020101010101010----
Raw TAF
KATL 231639Z 2317/2418 10012G20KT 4SM -SHRA BR OVC004
  TEMPO 2317/2319 2SM TSRA BR OVC004CB
  FM232300 15010G20KT 6SM BR VCSH OVC009
  FM240500 19010KT 4SM BR OVC007
  FM241400 24012G19KT P6SM BKN015 OVC030


Raw METAR
KATL 231652Z 09016KT 3/4SM BR OVC004 11/10 A2992 RMK AO2 SFC VIS 4 RAE44 SLP133 TWRINC P0000 T01110100 $
KATL 231639Z 09012G22KT 3/4SM -RA BR OVC004 11/10 A2993 RMK AO2 SFC VIS 4 TWRINC P0000 $

TAF Board Legend

Hazard VFR MVFR IFR LIFR
Visibility (sm) >5 3≤X≤5 1≤X<3 <1
Ceiling (100 ft) >30 10≤X≤30 5≤X<10 <5
Wind Speed (kt) <10 10≤X<20 20≤X<30 ≥30
Wind Gust (kt) <15 15≤X<25 25≤X<35 ≥35
Weather No Wx Reported VCTS,-TS,-FZRA TS,FZRA +TS,+FZRA


Page loaded:  17:03 UTC  |   09:03 AM Pacific  |   10:03 AM Mountain  |   11:03 AM Central  |   12:03 PM Eastern

 

ADVISORIES

FORECASTS

FORECASTS

OBSERVATIONS

USER TOOLS

ABOUT US